• Join FlightAware (Why Join?)
  • Login
  • US Flag 
02:31AM EST


 

Airport Tracker/Info


-or-


 

Live Flight TrackerFlight Track Log ✈ KAP46 ✈ 22-Jun-2013 ✈ KMSS - KALB

Flight Track Log - Related Links

Times and Time Zones

All times are in EDT time to prevent confusion due to time zone crossing. See the KAP46 flight status page for this flight to view local times or setup timezone preferences in your user account.

Time Position Orientation Groundspeed Altitude Reporting Facility
EDT Latitude Longitude Course Direction KTS MPH feet Rate Location/Type
01:08PM 44.7617 -74.7206 167° South 150 173 5,500  Level Boston Center
01:09PM 44.7225 -74.7044 164° South 145 167 6,200 660 Climbing Boston Center
01:10PM 44.6875 -74.6856 159° South 145 167 6,900 360 Climbing Boston Center
01:11PM 44.6483 -74.6636 158° South 151 174 7,000  Climbing Boston Center
01:12PM 44.6047 -74.6444 163° South 161 185 7,000  Level Boston Center
01:13PM 44.7867 -74.7622 167° South  Level FlightAware Approximate
01:13PM 44.5617 -74.6225 160° South 166 191 7,000  Level Boston Center
01:14PM 44.5161 -74.6003 161° South 166 191 7,000  Level Boston Center
01:15PM 44.4728 -74.5842 165° South 166 191 7,000  Level Boston Center
01:16PM 44.4292 -74.5653 163° South 166 191 7,000  Level Boston Center
01:17PM 44.3858 -74.5433 160° South 166 191 7,000  Level Boston Center
01:18PM 44.3406 -74.5183 158° South 166 191 7,000  Level Boston Center
01:19PM 44.2969 -74.5025 165° South 166 191 7,000  Level Boston Center
01:20PM 44.2556 -74.4836 162° South 166 191 7,000  Level Boston Center
01:21PM 44.2122 -74.4617 160° South 166 191 7,000  Level Boston Center
01:22PM 44.1689 -74.4431 163° South 166 191 7,000  Level Boston Center
01:23PM 44.1275 -74.4242 162° South 166 191 7,000  Level Boston Center
01:24PM 44.0842 -74.4025 160° South 166 191 7,000  Level Boston Center
01:25PM 44.0325 -74.3806 163° South 166 191 7,000  Level Boston Center
01:26PM 43.9889 -74.3589 160° South 166 191 7,000  Level Boston Center
01:27PM 43.9436 -74.3403 164° South 166 191 7,000  Level Boston Center
01:28PM 43.9000 -74.3186 160° South 166 191 7,000  Level Boston Center
01:29PM 43.8544 -74.3000 164° South 166 191 7,000  Level Boston Center
01:30PM 43.8089 -74.2786 161° South 166 191 7,000  Level Boston Center
01:31PM 43.7675 -74.2600 162° South 166 191 7,000  Level Boston Center
01:32PM 43.7222 -74.2386 161° South 166 191 7,000  Level Boston Center
01:33PM 43.6744 -74.2169 162° South 166 191 7,000  Level Boston Center
01:34PM 43.6331 -74.1986 162° South 166 191 7,000  Level Boston Center
01:35PM 43.5900 -74.1658 151° Southeast 166 191 7,000  Level Boston Center
01:36PM 43.5486 -74.1331 150° Southeast 166 191 7,000  Level Boston Center
01:38PM 43.5053 -74.1033 154° Southeast 177 204 7,000  Level Boston Center
01:39PM 43.4556 -74.0933 172° South 170 196 7,000  Level Boston Center
01:40PM 43.4117 -74.0892 176° South 170 196 7,000  Level Boston Center
01:40PM 43.3722 -74.0853 176° South 166 191 7,000  Level Boston Center
01:41PM 43.3206 -74.0611 161° South 166 191 7,000 -120 Level Boston Center
01:42PM 43.2750 -74.0369 159° South 168 193 6,800 -420 Descending Boston Center
01:43PM 43.2378 -74.0161 158° South 189 217 6,300 -660 Descending Boston Center
01:44PM 43.1903 -73.9836 153° Southeast 192 221 5,600 -660 Descending Boston Center
01:45PM 43.1447 -73.9539 155° Southeast 185 213 5,000 -660 Descending Boston Center
01:46PM 43.0931 -73.9186 153° Southeast 189 217 4,300 -600 Descending Boston Center
01:48PM 43.0394 -73.8889 158° South 184 212 3,700 -540 Descending Boston Center
01:49PM 42.9917 -73.8594 156° South 175 201 3,100 -540 Descending Boston Center
01:50PM 42.9483 -73.8386 161° South 170 196 2,700 -420 Descending Boston Center
01:50PM 42.9047 -73.8261 168° South 170 196 2,300 -420 Descending Boston Center
01:51PM 42.8589 -73.8194 174° South 165 190 1,900 -540 Descending Boston Center
01:52PM 42.8131 -73.8128 174° South 157 181 1,300 -540 Descending Boston Center
01:53PM 42.7819 -73.8092 175° South 101 116 900 -420 Descending Boston Center
01:55PM 42.7491 -73.8020 172° South  Level Estimated
02:02PM 42.7491 -73.8020 170° South  Level Estimated
02:03PM 42.7491 -73.8020 170° South  Level Estimated
02:04PM 42.7491 -73.8020 170° South  Level Estimated